sensor_id;sensor_type;location;lat;lon;timestamp;P1;durP1;ratioP1;P2;durP2;ratioP2
8536;SDS011;4306;50.210;10.628;2022-11-15T00:01:14;7.28;;;4.95;;
8536;SDS011;4306;50.210;10.628;2022-11-15T00:03:43;8.88;;;5.32;;
8536;SDS011;4306;50.210;10.628;2022-11-15T00:06:11;6.93;;;4.70;;
8536;SDS011;4306;50.210;10.628;2022-11-15T00:08:38;12.77;;;5.65;;
8536;SDS011;4306;50.210;10.628;2022-11-15T00:11:05;8.35;;;5.07;;
8536;SDS011;4306;50.210;10.628;2022-11-15T00:13:33;9.63;;;5.25;;
8536;SDS011;4306;50.210;10.628;2022-11-15T00:16:00;10.18;;;5.70;;
8536;SDS011;4306;50.210;10.628;2022-11-15T00:18:28;7.95;;;4.97;;
8536;SDS011;4306;50.210;10.628;2022-11-15T00:20:55;7.78;;;5.07;;
8536;SDS011;4306;50.210;10.628;2022-11-15T00:23:28;9.98;;;5.50;;
8536;SDS011;4306;50.210;10.628;2022-11-15T00:25:56;9.25;;;5.72;;
8536;SDS011;4306;50.210;10.628;2022-11-15T00:28:30;7.85;;;4.90;;
8536;SDS011;4306;50.210;10.628;2022-11-15T00:31:01;8.85;;;5.05;;
8536;SDS011;4306;50.210;10.628;2022-11-15T00:33:28;9.55;;;5.32;;
8536;SDS011;4306;50.210;10.628;2022-11-15T00:35:59;9.57;;;6.53;;
8536;SDS011;4306;50.210;10.628;2022-11-15T00:38:29;12.05;;;5.03;;
8536;SDS011;4306;50.210;10.628;2022-11-15T00:40:57;9.68;;;5.15;;
8536;SDS011;4306;50.210;10.628;2022-11-15T00:43:24;10.63;;;5.13;;
8536;SDS011;4306;50.210;10.628;2022-11-15T00:45:51;9.23;;;4.97;;
8536;SDS011;4306;50.210;10.628;2022-11-15T00:48:19;9.70;;;5.47;;
8536;SDS011;4306;50.210;10.628;2022-11-15T00:50:46;8.15;;;4.90;;
8536;SDS011;4306;50.210;10.628;2022-11-15T00:53:13;7.85;;;4.88;;
8536;SDS011;4306;50.210;10.628;2022-11-15T00:55:41;8.85;;;5.20;;
8536;SDS011;4306;50.210;10.628;2022-11-15T00:58:08;7.05;;;5.00;;
8536;SDS011;4306;50.210;10.628;2022-11-15T01:00:35;7.68;;;4.70;;
8536;SDS011;4306;50.210;10.628;2022-11-15T01:03:02;6.53;;;4.47;;
8536;SDS011;4306;50.210;10.628;2022-11-15T01:05:30;6.35;;;4.32;;
8536;SDS011;4306;50.210;10.628;2022-11-15T01:07:57;7.20;;;4.90;;
8536;SDS011;4306;50.210;10.628;2022-11-15T01:10:24;8.93;;;4.43;;
8536;SDS011;4306;50.210;10.628;2022-11-15T01:12:51;8.02;;;5.03;;
8536;SDS011;4306;50.210;10.628;2022-11-15T01:15:18;7.95;;;5.03;;
8536;SDS011;4306;50.210;10.628;2022-11-15T01:17:44;7.07;;;4.65;;
8536;SDS011;4306;50.210;10.628;2022-11-15T01:20:11;7.53;;;5.15;;
8536;SDS011;4306;50.210;10.628;2022-11-15T01:22:40;7.78;;;4.95;;
8536;SDS011;4306;50.210;10.628;2022-11-15T01:25:06;8.52;;;5.15;;
8536;SDS011;4306;50.210;10.628;2022-11-15T01:27:33;7.75;;;4.53;;
8536;SDS011;4306;50.210;10.628;2022-11-15T01:30:00;7.47;;;4.95;;
8536;SDS011;4306;50.210;10.628;2022-11-15T01:32:27;9.02;;;4.60;;
8536;SDS011;4306;50.210;10.628;2022-11-15T01:34:54;7.35;;;4.38;;
8536;SDS011;4306;50.210;10.628;2022-11-15T01:37:20;7.45;;;4.72;;
8536;SDS011;4306;50.210;10.628;2022-11-15T01:39:49;7.45;;;4.55;;
8536;SDS011;4306;50.210;10.628;2022-11-15T01:42:15;7.50;;;4.43;;
8536;SDS011;4306;50.210;10.628;2022-11-15T01:44:44;7.20;;;4.78;;
8536;SDS011;4306;50.210;10.628;2022-11-15T01:47:14;7.55;;;5.30;;
8536;SDS011;4306;50.210;10.628;2022-11-15T01:49:48;9.90;;;4.55;;
8536;SDS011;4306;50.210;10.628;2022-11-15T01:52:19;7.65;;;4.88;;
8536;SDS011;4306;50.210;10.628;2022-11-15T01:54:50;7.05;;;4.00;;
8536;SDS011;4306;50.210;10.628;2022-11-15T01:57:21;7.15;;;4.50;;
8536;SDS011;4306;50.210;10.628;2022-11-15T01:59:48;7.22;;;4.75;;
8536;SDS011;4306;50.210;10.628;2022-11-15T02:02:15;8.95;;;4.50;;
8536;SDS011;4306;50.210;10.628;2022-11-15T02:04:43;6.50;;;4.35;;
8536;SDS011;4306;50.210;10.628;2022-11-15T02:07:13;7.35;;;4.40;;
8536;SDS011;4306;50.210;10.628;2022-11-15T02:09:43;8.25;;;4.70;;
8536;SDS011;4306;50.210;10.628;2022-11-15T02:12:13;6.63;;;4.00;;
8536;SDS011;4306;50.210;10.628;2022-11-15T02:14:42;7.18;;;4.47;;
8536;SDS011;4306;50.210;10.628;2022-11-15T02:17:15;6.70;;;4.22;;
8536;SDS011;4306;50.210;10.628;2022-11-15T02:22:50;8.18;;;3.95;;
8536;SDS011;4306;50.210;10.628;2022-11-15T02:25:36;6.47;;;4.22;;
8536;SDS011;4306;50.210;10.628;2022-11-15T02:28:20;7.35;;;4.05;;
8536;SDS011;4306;50.210;10.628;2022-11-15T02:31:12;7.88;;;4.10;;
8536;SDS011;4306;50.210;10.628;2022-11-15T02:33:46;8.55;;;4.53;;
8536;SDS011;4306;50.210;10.628;2022-11-15T02:36:23;7.22;;;4.05;;
8536;SDS011;4306;50.210;10.628;2022-11-15T02:39:00;7.43;;;4.05;;
8536;SDS011;4306;50.210;10.628;2022-11-15T02:41:35;8.20;;;4.43;;
8536;SDS011;4306;50.210;10.628;2022-11-15T02:44:08;6.15;;;3.90;;
8536;SDS011;4306;50.210;10.628;2022-11-15T02:46:41;6.13;;;3.97;;
8536;SDS011;4306;50.210;10.628;2022-11-15T02:49:32;8.30;;;4.25;;
8536;SDS011;4306;50.210;10.628;2022-11-15T02:52:00;6.18;;;3.67;;
8536;SDS011;4306;50.210;10.628;2022-11-15T02:54:28;6.95;;;4.13;;
8536;SDS011;4306;50.210;10.628;2022-11-15T02:56:59;6.63;;;3.65;;
8536;SDS011;4306;50.210;10.628;2022-11-15T03:02:36;8.15;;;4.18;;
8536;SDS011;4306;50.210;10.628;2022-11-15T03:05:18;5.85;;;3.60;;
8536;SDS011;4306;50.210;10.628;2022-11-15T03:07:52;7.07;;;4.22;;
8536;SDS011;4306;50.210;10.628;2022-11-15T03:10:29;7.03;;;3.80;;
8536;SDS011;4306;50.210;10.628;2022-11-15T03:13:03;9.15;;;4.55;;
8536;SDS011;4306;50.210;10.628;2022-11-15T03:15:41;8.60;;;4.13;;
8536;SDS011;4306;50.210;10.628;2022-11-15T03:18:15;6.60;;;4.20;;
8536;SDS011;4306;50.210;10.628;2022-11-15T03:20:46;6.03;;;3.67;;
8536;SDS011;4306;50.210;10.628;2022-11-15T03:23:14;7.18;;;3.63;;
8536;SDS011;4306;50.210;10.628;2022-11-15T03:25:45;10.32;;;5.80;;
8536;SDS011;4306;50.210;10.628;2022-11-15T03:28:16;7.57;;;4.95;;
8536;SDS011;4306;50.210;10.628;2022-11-15T03:30:45;8.57;;;4.72;;
8536;SDS011;4306;50.210;10.628;2022-11-15T03:33:17;19.13;;;14.20;;
8536;SDS011;4306;50.210;10.628;2022-11-15T03:35:45;15.40;;;10.20;;
8536;SDS011;4306;50.210;10.628;2022-11-15T03:38:15;16.15;;;11.07;;
8536;SDS011;4306;50.210;10.628;2022-11-15T03:40:48;9.32;;;5.70;;
8536;SDS011;4306;50.210;10.628;2022-11-15T03:43:23;10.35;;;6.15;;
8536;SDS011;4306;50.210;10.628;2022-11-15T03:45:58;10.80;;;7.97;;
8536;SDS011;4306;50.210;10.628;2022-11-15T03:48:30;11.05;;;6.90;;
8536;SDS011;4306;50.210;10.628;2022-11-15T03:51:01;9.65;;;5.47;;
8536;SDS011;4306;50.210;10.628;2022-11-15T03:53:29;6.18;;;4.25;;
8536;SDS011;4306;50.210;10.628;2022-11-15T03:55:57;8.70;;;5.93;;
8536;SDS011;4306;50.210;10.628;2022-11-15T03:58:23;8.93;;;6.63;;
8536;SDS011;4306;50.210;10.628;2022-11-15T04:00:50;7.30;;;4.78;;
8536;SDS011;4306;50.210;10.628;2022-11-15T04:03:17;6.70;;;4.23;;
8536;SDS011;4306;50.210;10.628;2022-11-15T04:05:45;5.55;;;3.42;;
8536;SDS011;4306;50.210;10.628;2022-11-15T04:08:12;9.10;;;4.38;;
8536;SDS011;4306;50.210;10.628;2022-11-15T04:10:39;6.60;;;4.03;;
8536;SDS011;4306;50.210;10.628;2022-11-15T04:13:06;5.70;;;3.55;;
8536;SDS011;4306;50.210;10.628;2022-11-15T04:15:32;8.10;;;4.03;;
8536;SDS011;4306;50.210;10.628;2022-11-15T04:17:59;6.45;;;4.13;;
8536;SDS011;4306;50.210;10.628;2022-11-15T04:20:27;6.90;;;3.90;;
8536;SDS011;4306;50.210;10.628;2022-11-15T04:23:15;5.97;;;3.83;;
8536;SDS011;4306;50.210;10.628;2022-11-15T04:26:04;5.88;;;3.67;;
8536;SDS011;4306;50.210;10.628;2022-11-15T04:28:33;5.97;;;3.95;;
8536;SDS011;4306;50.210;10.628;2022-11-15T04:31:00;5.38;;;3.50;;
8536;SDS011;4306;50.210;10.628;2022-11-15T04:33:26;5.75;;;4.03;;
8536;SDS011;4306;50.210;10.628;2022-11-15T04:35:53;9.20;;;5.25;;
8536;SDS011;4306;50.210;10.628;2022-11-15T04:38:39;11.45;;;6.07;;
8536;SDS011;4306;50.210;10.628;2022-11-15T04:41:06;8.18;;;5.15;;
8536;SDS011;4306;50.210;10.628;2022-11-15T04:43:33;7.40;;;5.05;;
8536;SDS011;4306;50.210;10.628;2022-11-15T04:45:59;7.43;;;4.35;;
8536;SDS011;4306;50.210;10.628;2022-11-15T04:48:26;9.10;;;5.20;;
8536;SDS011;4306;50.210;10.628;2022-11-15T04:50:53;8.60;;;5.68;;
8536;SDS011;4306;50.210;10.628;2022-11-15T04:53:20;8.00;;;5.00;;
8536;SDS011;4306;50.210;10.628;2022-11-15T04:55:48;9.05;;;4.88;;
8536;SDS011;4306;50.210;10.628;2022-11-15T04:58:15;7.63;;;4.78;;
8536;SDS011;4306;50.210;10.628;2022-11-15T05:00:42;8.45;;;4.85;;
8536;SDS011;4306;50.210;10.628;2022-11-15T05:03:08;8.82;;;4.70;;
8536;SDS011;4306;50.210;10.628;2022-11-15T05:05:53;7.57;;;4.90;;
8536;SDS011;4306;50.210;10.628;2022-11-15T05:08:19;21.20;;;13.15;;
8536;SDS011;4306;50.210;10.628;2022-11-15T05:10:49;22.50;;;13.52;;
8536;SDS011;4306;50.210;10.628;2022-11-15T05:13:16;30.95;;;19.60;;
8536;SDS011;4306;50.210;10.628;2022-11-15T05:15:42;23.60;;;14.50;;
8536;SDS011;4306;50.210;10.628;2022-11-15T05:18:09;20.85;;;12.40;;
8536;SDS011;4306;50.210;10.628;2022-11-15T05:20:36;8.80;;;6.03;;
8536;SDS011;4306;50.210;10.628;2022-11-15T05:23:03;8.18;;;4.65;;
8536;SDS011;4306;50.210;10.628;2022-11-15T05:25:30;10.50;;;5.30;;
8536;SDS011;4306;50.210;10.628;2022-11-15T05:27:58;7.15;;;4.60;;
8536;SDS011;4306;50.210;10.628;2022-11-15T05:30:25;6.60;;;4.28;;
8536;SDS011;4306;50.210;10.628;2022-11-15T05:32:52;8.48;;;4.82;;
8536;SDS011;4306;50.210;10.628;2022-11-15T05:35:21;8.15;;;5.32;;
8536;SDS011;4306;50.210;10.628;2022-11-15T05:37:55;9.52;;;5.32;;
8536;SDS011;4306;50.210;10.628;2022-11-15T05:40:23;9.13;;;5.00;;
8536;SDS011;4306;50.210;10.628;2022-11-15T05:42:50;8.27;;;4.95;;
8536;SDS011;4306;50.210;10.628;2022-11-15T05:45:18;7.75;;;4.47;;
8536;SDS011;4306;50.210;10.628;2022-11-15T05:47:46;7.97;;;6.28;;
8536;SDS011;4306;50.210;10.628;2022-11-15T05:50:15;7.72;;;5.70;;
8536;SDS011;4306;50.210;10.628;2022-11-15T05:52:44;9.43;;;5.25;;
8536;SDS011;4306;50.210;10.628;2022-11-15T05:55:13;8.10;;;5.13;;
8536;SDS011;4306;50.210;10.628;2022-11-15T05:57:40;7.00;;;4.53;;
8536;SDS011;4306;50.210;10.628;2022-11-15T06:00:08;7.82;;;4.85;;
8536;SDS011;4306;50.210;10.628;2022-11-15T06:02:36;6.70;;;4.43;;
8536;SDS011;4306;50.210;10.628;2022-11-15T06:05:03;7.18;;;4.47;;
8536;SDS011;4306;50.210;10.628;2022-11-15T06:07:30;6.85;;;4.05;;
8536;SDS011;4306;50.210;10.628;2022-11-15T06:09:57;7.68;;;4.22;;
8536;SDS011;4306;50.210;10.628;2022-11-15T06:12:24;8.48;;;5.07;;
8536;SDS011;4306;50.210;10.628;2022-11-15T06:14:51;8.52;;;5.45;;
8536;SDS011;4306;50.210;10.628;2022-11-15T06:17:18;7.82;;;4.93;;
8536;SDS011;4306;50.210;10.628;2022-11-15T06:19:46;7.38;;;5.13;;
8536;SDS011;4306;50.210;10.628;2022-11-15T06:22:13;7.85;;;4.72;;
8536;SDS011;4306;50.210;10.628;2022-11-15T06:24:39;7.47;;;5.00;;
8536;SDS011;4306;50.210;10.628;2022-11-15T06:27:06;12.48;;;6.03;;
8536;SDS011;4306;50.210;10.628;2022-11-15T06:29:33;10.85;;;5.50;;
8536;SDS011;4306;50.210;10.628;2022-11-15T06:32:00;9.70;;;5.95;;
8536;SDS011;4306;50.210;10.628;2022-11-15T06:34:27;9.13;;;5.17;;
8536;SDS011;4306;50.210;10.628;2022-11-15T06:36:55;8.95;;;5.43;;
8536;SDS011;4306;50.210;10.628;2022-11-15T06:39:22;8.50;;;4.45;;
8536;SDS011;4306;50.210;10.628;2022-11-15T06:41:49;7.65;;;5.30;;
8536;SDS011;4306;50.210;10.628;2022-11-15T06:44:15;8.07;;;5.07;;
8536;SDS011;4306;50.210;10.628;2022-11-15T06:46:42;8.38;;;4.43;;
8536;SDS011;4306;50.210;10.628;2022-11-15T06:49:09;11.27;;;7.22;;
8536;SDS011;4306;50.210;10.628;2022-11-15T06:51:36;12.65;;;7.38;;
8536;SDS011;4306;50.210;10.628;2022-11-15T06:54:04;10.07;;;6.20;;
8536;SDS011;4306;50.210;10.628;2022-11-15T06:56:31;9.93;;;6.10;;
8536;SDS011;4306;50.210;10.628;2022-11-15T06:58:59;8.18;;;5.47;;
8536;SDS011;4306;50.210;10.628;2022-11-15T07:01:26;10.00;;;6.15;;
8536;SDS011;4306;50.210;10.628;2022-11-15T07:03:53;10.27;;;5.78;;
8536;SDS011;4306;50.210;10.628;2022-11-15T07:06:20;7.13;;;5.00;;
8536;SDS011;4306;50.210;10.628;2022-11-15T07:08:47;6.78;;;4.40;;
8536;SDS011;4306;50.210;10.628;2022-11-15T07:11:15;7.57;;;4.35;;
8536;SDS011;4306;50.210;10.628;2022-11-15T07:13:42;13.80;;;9.32;;
8536;SDS011;4306;50.210;10.628;2022-11-15T07:16:09;10.07;;;6.82;;
8536;SDS011;4306;50.210;10.628;2022-11-15T07:18:36;6.90;;;4.63;;
8536;SDS011;4306;50.210;10.628;2022-11-15T07:21:05;7.47;;;4.50;;
8536;SDS011;4306;50.210;10.628;2022-11-15T07:23:33;6.83;;;4.37;;
8536;SDS011;4306;50.210;10.628;2022-11-15T07:26:02;7.90;;;4.60;;
8536;SDS011;4306;50.210;10.628;2022-11-15T07:28:30;6.72;;;4.82;;
8536;SDS011;4306;50.210;10.628;2022-11-15T07:30:57;14.40;;;6.97;;
8536;SDS011;4306;50.210;10.628;2022-11-15T07:33:24;13.35;;;8.73;;
8536;SDS011;4306;50.210;10.628;2022-11-15T07:35:51;10.35;;;6.63;;
8536;SDS011;4306;50.210;10.628;2022-11-15T07:38:17;10.18;;;6.32;;
8536;SDS011;4306;50.210;10.628;2022-11-15T07:40:45;12.57;;;7.57;;
8536;SDS011;4306;50.210;10.628;2022-11-15T07:43:12;9.82;;;6.55;;
8536;SDS011;4306;50.210;10.628;2022-11-15T07:45:41;10.75;;;7.53;;
8536;SDS011;4306;50.210;10.628;2022-11-15T07:48:09;9.07;;;6.35;;
8536;SDS011;4306;50.210;10.628;2022-11-15T07:50:36;10.73;;;7.07;;
8536;SDS011;4306;50.210;10.628;2022-11-15T07:53:03;10.80;;;6.70;;
8536;SDS011;4306;50.210;10.628;2022-11-15T07:55:30;8.77;;;6.38;;
8536;SDS011;4306;50.210;10.628;2022-11-15T07:58:00;14.00;;;6.22;;
8536;SDS011;4306;50.210;10.628;2022-11-15T08:00:28;9.40;;;6.00;;
8536;SDS011;4306;50.210;10.628;2022-11-15T08:03:02;9.88;;;6.20;;
8536;SDS011;4306;50.210;10.628;2022-11-15T08:05:29;12.00;;;6.45;;
8536;SDS011;4306;50.210;10.628;2022-11-15T08:07:56;9.80;;;5.85;;
8536;SDS011;4306;50.210;10.628;2022-11-15T08:10:23;13.45;;;6.93;;
8536;SDS011;4306;50.210;10.628;2022-11-15T08:12:56;11.52;;;6.75;;
8536;SDS011;4306;50.210;10.628;2022-11-15T08:15:24;13.25;;;7.28;;
8536;SDS011;4306;50.210;10.628;2022-11-15T08:17:54;11.65;;;6.18;;
8536;SDS011;4306;50.210;10.628;2022-11-15T08:20:24;11.27;;;7.03;;
8536;SDS011;4306;50.210;10.628;2022-11-15T08:22:53;11.55;;;6.53;;
8536;SDS011;4306;50.210;10.628;2022-11-15T08:25:20;10.98;;;6.88;;
8536;SDS011;4306;50.210;10.628;2022-11-15T08:27:47;10.23;;;5.30;;
8536;SDS011;4306;50.210;10.628;2022-11-15T08:30:17;8.68;;;5.80;;
8536;SDS011;4306;50.210;10.628;2022-11-15T08:32:43;8.23;;;4.70;;
8536;SDS011;4306;50.210;10.628;2022-11-15T08:35:10;15.52;;;9.23;;
8536;SDS011;4306;50.210;10.628;2022-11-15T08:37:39;7.63;;;5.03;;
8536;SDS011;4306;50.210;10.628;2022-11-15T08:40:06;16.98;;;7.30;;
8536;SDS011;4306;50.210;10.628;2022-11-15T08:42:34;13.27;;;7.13;;
8536;SDS011;4306;50.210;10.628;2022-11-15T08:45:01;11.77;;;6.28;;
8536;SDS011;4306;50.210;10.628;2022-11-15T08:47:28;8.82;;;5.93;;
8536;SDS011;4306;50.210;10.628;2022-11-15T08:49:55;10.07;;;6.90;;
8536;SDS011;4306;50.210;10.628;2022-11-15T08:52:22;8.48;;;5.97;;
8536;SDS011;4306;50.210;10.628;2022-11-15T08:54:50;9.23;;;6.68;;
8536;SDS011;4306;50.210;10.628;2022-11-15T08:57:17;7.57;;;4.93;;
8536;SDS011;4306;50.210;10.628;2022-11-15T08:59:44;5.88;;;3.97;;
8536;SDS011;4306;50.210;10.628;2022-11-15T09:02:11;6.93;;;4.38;;
8536;SDS011;4306;50.210;10.628;2022-11-15T09:04:40;6.15;;;4.20;;
8536;SDS011;4306;50.210;10.628;2022-11-15T09:07:08;6.97;;;6.22;;
8536;SDS011;4306;50.210;10.628;2022-11-15T09:09:36;7.55;;;5.25;;
8536;SDS011;4306;50.210;10.628;2022-11-15T09:12:05;5.85;;;4.90;;
8536;SDS011;4306;50.210;10.628;2022-11-15T09:14:33;6.75;;;4.45;;
8536;SDS011;4306;50.210;10.628;2022-11-15T09:17:00;10.80;;;7.20;;
8536;SDS011;4306;50.210;10.628;2022-11-15T09:19:28;9.57;;;5.78;;
8536;SDS011;4306;50.210;10.628;2022-11-15T09:21:55;6.57;;;4.38;;
8536;SDS011;4306;50.210;10.628;2022-11-15T09:24:21;5.78;;;4.32;;
8536;SDS011;4306;50.210;10.628;2022-11-15T09:26:49;8.20;;;3.85;;
8536;SDS011;4306;50.210;10.628;2022-11-15T09:29:17;5.50;;;3.70;;
8536;SDS011;4306;50.210;10.628;2022-11-15T09:31:44;6.97;;;4.00;;
8536;SDS011;4306;50.210;10.628;2022-11-15T09:34:11;5.03;;;3.40;;
8536;SDS011;4306;50.210;10.628;2022-11-15T09:36:38;6.40;;;3.47;;
8536;SDS011;4306;50.210;10.628;2022-11-15T09:39:05;5.00;;;3.58;;
8536;SDS011;4306;50.210;10.628;2022-11-15T09:41:43;5.38;;;3.35;;
8536;SDS011;4306;50.210;10.628;2022-11-15T09:44:29;6.07;;;3.85;;
8536;SDS011;4306;50.210;10.628;2022-11-15T09:47:18;5.28;;;3.45;;
8536;SDS011;4306;50.210;10.628;2022-11-15T09:50:08;6.13;;;3.28;;
8536;SDS011;4306;50.210;10.628;2022-11-15T09:52:38;6.20;;;3.20;;
8536;SDS011;4306;50.210;10.628;2022-11-15T09:55:08;8.93;;;5.70;;
8536;SDS011;4306;50.210;10.628;2022-11-15T09:57:39;6.28;;;3.55;;
8536;SDS011;4306;50.210;10.628;2022-11-15T10:00:16;4.93;;;3.22;;
8536;SDS011;4306;50.210;10.628;2022-11-15T10:02:57;6.68;;;3.38;;
8536;SDS011;4306;50.210;10.628;2022-11-15T10:05:30;5.55;;;3.35;;
8536;SDS011;4306;50.210;10.628;2022-11-15T10:08:03;5.40;;;4.85;;
8536;SDS011;4306;50.210;10.628;2022-11-15T10:10:40;8.60;;;5.90;;
8536;SDS011;4306;50.210;10.628;2022-11-15T10:13:11;8.20;;;5.20;;
8536;SDS011;4306;50.210;10.628;2022-11-15T10:15:43;7.28;;;4.80;;
8536;SDS011;4306;50.210;10.628;2022-11-15T10:18:16;8.45;;;4.70;;
8536;SDS011;4306;50.210;10.628;2022-11-15T10:20:48;7.05;;;4.15;;
8536;SDS011;4306;50.210;10.628;2022-11-15T10:23:17;4.88;;;3.08;;
8536;SDS011;4306;50.210;10.628;2022-11-15T10:25:46;8.18;;;3.45;;
8536;SDS011;4306;50.210;10.628;2022-11-15T10:28:17;7.95;;;4.70;;
8536;SDS011;4306;50.210;10.628;2022-11-15T10:30:49;7.25;;;4.15;;
8536;SDS011;4306;50.210;10.628;2022-11-15T10:33:25;6.60;;;4.00;;
8536;SDS011;4306;50.210;10.628;2022-11-15T10:36:16;9.93;;;6.50;;
8536;SDS011;4306;50.210;10.628;2022-11-15T10:38:52;9.07;;;5.45;;
8536;SDS011;4306;50.210;10.628;2022-11-15T10:41:21;6.22;;;3.40;;
8536;SDS011;4306;50.210;10.628;2022-11-15T10:44:03;7.43;;;4.25;;
8536;SDS011;4306;50.210;10.628;2022-11-15T10:46:45;6.78;;;4.00;;
8536;SDS011;4306;50.210;10.628;2022-11-15T10:49:16;7.75;;;4.55;;
8536;SDS011;4306;50.210;10.628;2022-11-15T10:51:45;12.02;;;6.40;;
8536;SDS011;4306;50.210;10.628;2022-11-15T10:54:14;6.13;;;3.78;;
8536;SDS011;4306;50.210;10.628;2022-11-15T10:56:48;6.82;;;4.15;;
8536;SDS011;4306;50.210;10.628;2022-11-15T10:59:18;5.43;;;3.60;;
8536;SDS011;4306;50.210;10.628;2022-11-15T11:01:52;4.30;;;3.05;;
8536;SDS011;4306;50.210;10.628;2022-11-15T11:04:19;6.57;;;3.03;;
8536;SDS011;4306;50.210;10.628;2022-11-15T11:06:46;7.35;;;4.20;;
8536;SDS011;4306;50.210;10.628;2022-11-15T11:09:21;5.28;;;3.47;;
8536;SDS011;4306;50.210;10.628;2022-11-15T11:11:51;5.28;;;3.10;;
8536;SDS011;4306;50.210;10.628;2022-11-15T11:14:20;6.10;;;3.22;;
8536;SDS011;4306;50.210;10.628;2022-11-15T11:16:49;5.82;;;2.80;;
8536;SDS011;4306;50.210;10.628;2022-11-15T11:19:37;6.50;;;3.63;;
8536;SDS011;4306;50.210;10.628;2022-11-15T11:22:22;4.35;;;2.35;;
8536;SDS011;4306;50.210;10.628;2022-11-15T11:25:04;4.40;;;2.60;;
8536;SDS011;4306;50.210;10.628;2022-11-15T11:27:43;4.55;;;3.30;;
8536;SDS011;4306;50.210;10.628;2022-11-15T11:30:21;4.18;;;2.60;;
8536;SDS011;4306;50.210;10.628;2022-11-15T11:35:43;4.40;;;2.88;;
8536;SDS011;4306;50.210;10.628;2022-11-15T11:38:24;4.63;;;2.53;;
8536;SDS011;4306;50.210;10.628;2022-11-15T11:41:04;4.57;;;2.88;;
8536;SDS011;4306;50.210;10.628;2022-11-15T11:43:41;4.85;;;2.70;;
8536;SDS011;4306;50.210;10.628;2022-11-15T11:46:24;4.95;;;2.90;;
8536;SDS011;4306;50.210;10.628;2022-11-15T11:49:12;5.30;;;3.40;;
8536;SDS011;4306;50.210;10.628;2022-11-15T11:51:43;6.55;;;3.65;;
8536;SDS011;4306;50.210;10.628;2022-11-15T11:54:17;5.00;;;2.72;;
8536;SDS011;4306;50.210;10.628;2022-11-15T11:56:49;4.45;;;2.72;;
8536;SDS011;4306;50.210;10.628;2022-11-15T11:59:19;3.83;;;2.58;;
8536;SDS011;4306;50.210;10.628;2022-11-15T12:01:51;4.60;;;2.78;;
8536;SDS011;4306;50.210;10.628;2022-11-15T12:04:20;3.85;;;2.40;;
8536;SDS011;4306;50.210;10.628;2022-11-15T12:06:56;4.65;;;2.50;;
8536;SDS011;4306;50.210;10.628;2022-11-15T12:09:27;4.53;;;2.35;;
8536;SDS011;4306;50.210;10.628;2022-11-15T12:12:00;4.10;;;2.28;;
8536;SDS011;4306;50.210;10.628;2022-11-15T12:14:33;4.80;;;2.47;;
8536;SDS011;4306;50.210;10.628;2022-11-15T12:17:09;5.13;;;2.60;;
8536;SDS011;4306;50.210;10.628;2022-11-15T12:19:38;5.05;;;2.42;;
8536;SDS011;4306;50.210;10.628;2022-11-15T12:22:06;5.13;;;4.13;;
8536;SDS011;4306;50.210;10.628;2022-11-15T12:24:39;6.25;;;3.58;;
8536;SDS011;4306;50.210;10.628;2022-11-15T12:27:13;4.95;;;3.10;;
8536;SDS011;4306;50.210;10.628;2022-11-15T12:29:46;6.05;;;3.13;;
8536;SDS011;4306;50.210;10.628;2022-11-15T12:32:21;4.65;;;3.10;;
8536;SDS011;4306;50.210;10.628;2022-11-15T12:34:54;5.80;;;3.90;;
8536;SDS011;4306;50.210;10.628;2022-11-15T12:37:46;4.15;;;2.85;;
8536;SDS011;4306;50.210;10.628;2022-11-15T12:40:22;4.72;;;2.95;;
8536;SDS011;4306;50.210;10.628;2022-11-15T12:46:01;5.40;;;2.50;;
8536;SDS011;4306;50.210;10.628;2022-11-15T12:57:35;3.03;;;2.15;;
8536;SDS011;4306;50.210;10.628;2022-11-15T13:09:03;5.40;;;2.95;;
8536;SDS011;4306;50.210;10.628;2022-11-15T13:11:54;6.07;;;2.95;;
8536;SDS011;4306;50.210;10.628;2022-11-15T13:17:24;7.70;;;4.25;;
8536;SDS011;4306;50.210;10.628;2022-11-15T13:20:22;6.75;;;3.95;;
8536;SDS011;4306;50.210;10.628;2022-11-15T13:22:52;6.55;;;4.40;;
8536;SDS011;4306;50.210;10.628;2022-11-15T13:28:32;4.93;;;2.75;;
8536;SDS011;4306;50.210;10.628;2022-11-15T13:31:03;6.20;;;3.33;;
8536;SDS011;4306;50.210;10.628;2022-11-15T13:33:49;4.30;;;2.70;;
8536;SDS011;4306;50.210;10.628;2022-11-15T13:36:18;11.48;;;6.10;;
8536;SDS011;4306;50.210;10.628;2022-11-15T13:38:53;12.68;;;6.28;;
8536;SDS011;4306;50.210;10.628;2022-11-15T13:41:23;8.80;;;4.28;;
8536;SDS011;4306;50.210;10.628;2022-11-15T13:43:53;8.65;;;3.75;;
8536;SDS011;4306;50.210;10.628;2022-11-15T13:46:22;8.23;;;4.50;;
8536;SDS011;4306;50.210;10.628;2022-11-15T13:48:54;6.40;;;3.95;;
8536;SDS011;4306;50.210;10.628;2022-11-15T13:51:27;9.85;;;5.63;;
8536;SDS011;4306;50.210;10.628;2022-11-15T13:54:02;5.75;;;3.15;;
8536;SDS011;4306;50.210;10.628;2022-11-15T13:56:35;8.05;;;5.25;;
8536;SDS011;4306;50.210;10.628;2022-11-15T13:59:09;6.20;;;2.65;;
8536;SDS011;4306;50.210;10.628;2022-11-15T14:01:36;4.35;;;2.40;;
8536;SDS011;4306;50.210;10.628;2022-11-15T14:04:10;7.38;;;3.08;;
8536;SDS011;4306;50.210;10.628;2022-11-15T14:06:43;5.57;;;4.05;;
8536;SDS011;4306;50.210;10.628;2022-11-15T14:11:59;8.38;;;7.40;;
8536;SDS011;4306;50.210;10.628;2022-11-15T14:14:29;6.88;;;6.05;;
8536;SDS011;4306;50.210;10.628;2022-11-15T14:16:57;8.32;;;6.47;;
8536;SDS011;4306;50.210;10.628;2022-11-15T14:19:36;13.00;;;8.75;;
8536;SDS011;4306;50.210;10.628;2022-11-15T14:22:07;20.38;;;16.40;;
8536;SDS011;4306;50.210;10.628;2022-11-15T14:24:35;11.77;;;10.02;;
8536;SDS011;4306;50.210;10.628;2022-11-15T14:27:15;10.23;;;7.10;;
8536;SDS011;4306;50.210;10.628;2022-11-15T14:29:54;9.13;;;6.10;;
8536;SDS011;4306;50.210;10.628;2022-11-15T14:32:22;14.63;;;9.40;;
8536;SDS011;4306;50.210;10.628;2022-11-15T14:34:53;17.27;;;12.75;;
8536;SDS011;4306;50.210;10.628;2022-11-15T14:37:23;14.00;;;11.98;;
8536;SDS011;4306;50.210;10.628;2022-11-15T14:39:51;10.85;;;8.60;;
8536;SDS011;4306;50.210;10.628;2022-11-15T14:42:19;8.68;;;5.43;;
8536;SDS011;4306;50.210;10.628;2022-11-15T14:44:47;7.20;;;5.47;;
8536;SDS011;4306;50.210;10.628;2022-11-15T14:47:16;8.77;;;4.18;;
8536;SDS011;4306;50.210;10.628;2022-11-15T14:49:43;18.48;;;11.70;;
8536;SDS011;4306;50.210;10.628;2022-11-15T14:52:16;18.55;;;12.25;;
8536;SDS011;4306;50.210;10.628;2022-11-15T14:54:51;19.70;;;7.57;;
8536;SDS011;4306;50.210;10.628;2022-11-15T14:57:18;13.85;;;10.23;;
8536;SDS011;4306;50.210;10.628;2022-11-15T14:59:44;12.13;;;8.27;;
8536;SDS011;4306;50.210;10.628;2022-11-15T15:02:14;14.02;;;6.10;;
8536;SDS011;4306;50.210;10.628;2022-11-15T15:04:45;9.10;;;6.22;;
8536;SDS011;4306;50.210;10.628;2022-11-15T15:07:12;10.57;;;6.72;;
8536;SDS011;4306;50.210;10.628;2022-11-15T15:09:39;11.57;;;8.15;;
8536;SDS011;4306;50.210;10.628;2022-11-15T15:12:11;13.60;;;7.95;;
8536;SDS011;4306;50.210;10.628;2022-11-15T15:14:42;8.27;;;5.03;;
8536;SDS011;4306;50.210;10.628;2022-11-15T15:17:09;12.40;;;6.50;;
8536;SDS011;4306;50.210;10.628;2022-11-15T15:19:37;7.72;;;5.20;;
8536;SDS011;4306;50.210;10.628;2022-11-15T15:22:04;7.03;;;5.25;;
8536;SDS011;4306;50.210;10.628;2022-11-15T15:24:31;21.45;;;14.90;;
8536;SDS011;4306;50.210;10.628;2022-11-15T15:26:58;36.15;;;24.55;;
8536;SDS011;4306;50.210;10.628;2022-11-15T15:29:25;57.83;;;35.60;;
8536;SDS011;4306;50.210;10.628;2022-11-15T15:31:52;126.40;;;61.40;;
8536;SDS011;4306;50.210;10.628;2022-11-15T15:34:19;99.05;;;50.65;;
8536;SDS011;4306;50.210;10.628;2022-11-15T15:36:47;21.15;;;12.38;;
8536;SDS011;4306;50.210;10.628;2022-11-15T15:39:14;7.82;;;4.45;;
8536;SDS011;4306;50.210;10.628;2022-11-15T15:41:41;7.82;;;4.32;;
8536;SDS011;4306;50.210;10.628;2022-11-15T15:44:08;8.45;;;5.35;;
8536;SDS011;4306;50.210;10.628;2022-11-15T15:46:35;17.00;;;10.18;;
8536;SDS011;4306;50.210;10.628;2022-11-15T15:49:02;25.85;;;12.73;;
8536;SDS011;4306;50.210;10.628;2022-11-15T15:51:29;23.38;;;11.70;;
8536;SDS011;4306;50.210;10.628;2022-11-15T15:53:57;10.45;;;6.72;;
8536;SDS011;4306;50.210;10.628;2022-11-15T15:56:24;10.73;;;5.82;;